<?xml version="1.0" encoding="UTF-8" standalone="no" ?>
<gpx xmlns="http://www.topografix.com/GPX/1/1" xmlns:xsi="http://www.w3.org/2001/XMLSchema-instance" xsi:schemaLocation="http://www.topografix.com/GPX/1/1 http://www.topografix.com/GPX/1/1/gpx.xsd" version="1.1" creator="VisuGPX - https://www.visugpx.com">
  <metadata>
    <name>Sentier nature du Loosthal</name>
    <desc><![CDATA[Départ à l ancienne maison forestière du Loosthal sur la D134 à 2,5 km du centre de La Petite-Pierre. La MF est actuellement le siège du groupement ornithologique du refuge Nord Alace : GORNA. Suivre balisage club vosgien anneau jaune. Peu après le parking, rester en bas de l escalier ; le chemin longe la route forestière du Breitschloss. Après le rocher Hirschfels et son abri, le chemin longe la route forestière du Fischbaechel vers le rocher de Loosthal. Le parking est tout proche. Belles vues en cours de route sur La Petite-Pierre, le château de Hunebourg, les collines environnantes. Vingt-six panneaux explicatifs sur la vie dans la forêt jalonnent le chemin, ainsi qu une vingtaine d autres panneaux sur l identification des arbres rencontrés au cours de la balade (châtaignier, merisier, charme, frêne, chêne, hêtre, érable, sapin, etc ). Un petit livret-guide est disponible à l OT de La Petite-Pierre pour cette balade en site Natura 2000 des Vosges du Nord. Cette balade peut être faite en matinée et l après-midi on peut visiter le château de La Petite-Pierre, siège du PNRVN, le chemin de ronde, le village 
http://www.clubvosgienbitche.fr/NotreGuide.html]]></desc>
  </metadata>
  <trk>
    <name><![CDATA[04-AVR-16 11:32:50]]></name>
    <trkseg>
      <trkpt lat="48.85073" lon="7.34192">
        <ele>308.72</ele>
        <time>2016-04-04T08:00:15Z</time>
      </trkpt>
      <trkpt lat="48.85073" lon="7.34192">
        <ele>307.76</ele>
        <time>2016-04-04T08:00:43Z</time>
      </trkpt>
      <trkpt lat="48.85072" lon="7.34192">
        <ele>307.28</ele>
        <time>2016-04-04T08:00:59Z</time>
      </trkpt>
      <trkpt lat="48.85072" lon="7.34192">
        <ele>307.28</ele>
        <time>2016-04-04T08:01:25Z</time>
      </trkpt>
      <trkpt lat="48.85071" lon="7.3419">
        <ele>306.32</ele>
        <time>2016-04-04T08:01:53Z</time>
      </trkpt>
      <trkpt lat="48.85071" lon="7.3419">
        <ele>306.32</ele>
        <time>2016-04-04T08:02:19Z</time>
      </trkpt>
      <trkpt lat="48.85071" lon="7.3419">
        <ele>306.32</ele>
        <time>2016-04-04T08:02:42Z</time>
      </trkpt>
      <trkpt lat="48.8507" lon="7.3419">
        <ele>304.88</ele>
        <time>2016-04-04T08:02:57Z</time>
      </trkpt>
      <trkpt lat="48.8507" lon="7.3419">
        <ele>304.88</ele>
        <time>2016-04-04T08:03:17Z</time>
      </trkpt>
      <trkpt lat="48.85068" lon="7.34188">
        <ele>304.39</ele>
        <time>2016-04-04T08:03:35Z</time>
      </trkpt>
      <trkpt lat="48.85065" lon="7.34181">
        <ele>301.99</ele>
        <time>2016-04-04T08:03:50Z</time>
      </trkpt>
      <trkpt lat="48.85065" lon="7.34181">
        <ele>301.99</ele>
        <time>2016-04-04T08:04:18Z</time>
      </trkpt>
      <trkpt lat="48.85062" lon="7.34167">
        <ele>298.63</ele>
        <time>2016-04-04T08:04:39Z</time>
      </trkpt>
      <trkpt lat="48.85062" lon="7.34167">
        <ele>298.63</ele>
        <time>2016-04-04T08:04:55Z</time>
      </trkpt>
      <trkpt lat="48.85062" lon="7.34167">
        <ele>298.63</ele>
        <time>2016-04-04T08:05:15Z</time>
      </trkpt>
      <trkpt lat="48.85062" lon="7.34165">
        <ele>298.15</ele>
        <time>2016-04-04T08:05:34Z</time>
      </trkpt>
      <trkpt lat="48.85057" lon="7.34139">
        <ele>292.38</ele>
        <time>2016-04-04T08:05:49Z</time>
      </trkpt>
      <trkpt lat="48.85056" lon="7.34131">
        <ele>290.94</ele>
        <time>2016-04-04T08:06:08Z</time>
      </trkpt>
      <trkpt lat="48.85055" lon="7.34129">
        <ele>290.46</ele>
        <time>2016-04-04T08:06:30Z</time>
      </trkpt>
      <trkpt lat="48.85055" lon="7.34129">
        <ele>290.46</ele>
        <time>2016-04-04T08:06:58Z</time>
      </trkpt>
      <trkpt lat="48.85055" lon="7.34129">
        <ele>290.46</ele>
        <time>2016-04-04T08:07:40Z</time>
      </trkpt>
      <trkpt lat="48.85055" lon="7.34128">
        <ele>290.46</ele>
        <time>2016-04-04T08:08:10Z</time>
      </trkpt>
      <trkpt lat="48.85055" lon="7.34128">
        <ele>290.46</ele>
        <time>2016-04-04T08:08:24Z</time>
      </trkpt>
      <trkpt lat="48.85054" lon="7.34123">
        <ele>289.49</ele>
        <time>2016-04-04T08:08:41Z</time>
      </trkpt>
      <trkpt lat="48.85054" lon="7.34121">
        <ele>289.01</ele>
        <time>2016-04-04T08:09:02Z</time>
      </trkpt>
      <trkpt lat="48.85054" lon="7.34116">
        <ele>288.05</ele>
        <time>2016-04-04T08:09:30Z</time>
      </trkpt>
      <trkpt lat="48.85053" lon="7.34112">
        <ele>287.57</ele>
        <time>2016-04-04T08:09:55Z</time>
      </trkpt>
      <trkpt lat="48.85053" lon="7.34112">
        <ele>287.57</ele>
        <time>2016-04-04T08:10:15Z</time>
      </trkpt>
      <trkpt lat="48.85054" lon="7.34106">
        <ele>286.13</ele>
        <time>2016-04-04T08:10:35Z</time>
      </trkpt>
      <trkpt lat="48.85053" lon="7.34103">
        <ele>286.61</ele>
        <time>2016-04-04T08:11:08Z</time>
      </trkpt>
      <trkpt lat="48.85053" lon="7.34103">
        <ele>286.61</ele>
        <time>2016-04-04T08:11:30Z</time>
      </trkpt>
      <trkpt lat="48.85052" lon="7.34098">
        <ele>286.13</ele>
        <time>2016-04-04T08:11:56Z</time>
      </trkpt>
      <trkpt lat="48.85051" lon="7.34091">
        <ele>286.13</ele>
        <time>2016-04-04T08:12:13Z</time>
      </trkpt>
      <trkpt lat="48.85051" lon="7.34091">
        <ele>286.13</ele>
        <time>2016-04-04T08:12:36Z</time>
      </trkpt>
      <trkpt lat="48.85046" lon="7.34057">
        <ele>282.28</ele>
        <time>2016-04-04T08:12:54Z</time>
      </trkpt>
      <trkpt lat="48.85046" lon="7.34057">
        <ele>282.28</ele>
        <time>2016-04-04T08:13:09Z</time>
      </trkpt>
      <trkpt lat="48.85046" lon="7.34057">
        <ele>282.28</ele>
        <time>2016-04-04T08:13:25Z</time>
      </trkpt>
      <trkpt lat="48.85044" lon="7.34044">
        <ele>278.44</ele>
        <time>2016-04-04T08:13:45Z</time>
      </trkpt>
      <trkpt lat="48.85041" lon="7.34032">
        <ele>277</ele>
        <time>2016-04-04T08:14:17Z</time>
      </trkpt>
      <trkpt lat="48.85041" lon="7.34032">
        <ele>277</ele>
        <time>2016-04-04T08:14:38Z</time>
      </trkpt>
      <trkpt lat="48.85015" lon="7.33985">
        <ele>260.65</ele>
        <time>2016-04-04T08:14:54Z</time>
      </trkpt>
      <trkpt lat="48.85015" lon="7.33985">
        <ele>260.65</ele>
        <time>2016-04-04T08:15:14Z</time>
      </trkpt>
      <trkpt lat="48.84975" lon="7.33925">
        <ele>269.79</ele>
        <time>2016-04-04T08:15:32Z</time>
      </trkpt>
      <trkpt lat="48.84963" lon="7.33903">
        <ele>275.07</ele>
        <time>2016-04-04T08:15:53Z</time>
      </trkpt>
      <trkpt lat="48.8496" lon="7.33895">
        <ele>279.4</ele>
        <time>2016-04-04T08:16:13Z</time>
      </trkpt>
      <trkpt lat="48.8496" lon="7.3388">
        <ele>288.05</ele>
        <time>2016-04-04T08:16:40Z</time>
      </trkpt>
      <trkpt lat="48.8496" lon="7.3388">
        <ele>288.05</ele>
        <time>2016-04-04T08:16:50Z</time>
      </trkpt>
      <trkpt lat="48.84959" lon="7.33874">
        <ele>291.9</ele>
        <time>2016-04-04T08:17:00Z</time>
      </trkpt>
      <trkpt lat="48.84977" lon="7.3383">
        <ele>313.05</ele>
        <time>2016-04-04T08:17:21Z</time>
      </trkpt>
      <trkpt lat="48.84984" lon="7.33805">
        <ele>315.45</ele>
        <time>2016-04-04T08:17:42Z</time>
      </trkpt>
      <trkpt lat="48.84991" lon="7.33788">
        <ele>313.05</ele>
        <time>2016-04-04T08:18:03Z</time>
      </trkpt>
      <trkpt lat="48.84986" lon="7.33791">
        <ele>314.97</ele>
        <time>2016-04-04T08:18:21Z</time>
      </trkpt>
      <trkpt lat="48.84984" lon="7.33794">
        <ele>315.45</ele>
        <time>2016-04-04T08:18:41Z</time>
      </trkpt>
      <trkpt lat="48.84984" lon="7.33797">
        <ele>316.41</ele>
        <time>2016-04-04T08:18:57Z</time>
      </trkpt>
      <trkpt lat="48.84974" lon="7.33823">
        <ele>322.66</ele>
        <time>2016-04-04T08:19:15Z</time>
      </trkpt>
      <trkpt lat="48.84963" lon="7.33835">
        <ele>326.02</ele>
        <time>2016-04-04T08:19:21Z</time>
      </trkpt>
      <trkpt lat="48.84938" lon="7.33846">
        <ele>327.95</ele>
        <time>2016-04-04T08:19:40Z</time>
      </trkpt>
      <trkpt lat="48.84936" lon="7.33849">
        <ele>328.43</ele>
        <time>2016-04-04T08:19:59Z</time>
      </trkpt>
      <trkpt lat="48.84924" lon="7.33853">
        <ele>326.5</ele>
        <time>2016-04-04T08:20:16Z</time>
      </trkpt>
      <trkpt lat="48.84891" lon="7.33857">
        <ele>325.06</ele>
        <time>2016-04-04T08:20:34Z</time>
      </trkpt>
      <trkpt lat="48.84888" lon="7.33858">
        <ele>324.1</ele>
        <time>2016-04-04T08:20:51Z</time>
      </trkpt>
      <trkpt lat="48.84876" lon="7.33856">
        <ele>322.18</ele>
        <time>2016-04-04T08:21:06Z</time>
      </trkpt>
      <trkpt lat="48.84851" lon="7.33857">
        <ele>321.7</ele>
        <time>2016-04-04T08:21:23Z</time>
      </trkpt>
      <trkpt lat="48.84839" lon="7.33857">
        <ele>320.74</ele>
        <time>2016-04-04T08:21:45Z</time>
      </trkpt>
      <trkpt lat="48.84837" lon="7.33855">
        <ele>319.3</ele>
        <time>2016-04-04T08:22:09Z</time>
      </trkpt>
      <trkpt lat="48.84837" lon="7.33855">
        <ele>319.3</ele>
        <time>2016-04-04T08:22:30Z</time>
      </trkpt>
      <trkpt lat="48.84838" lon="7.33837">
        <ele>314.97</ele>
        <time>2016-04-04T08:22:44Z</time>
      </trkpt>
      <trkpt lat="48.84838" lon="7.33834">
        <ele>314.49</ele>
        <time>2016-04-04T08:23:04Z</time>
      </trkpt>
      <trkpt lat="48.84837" lon="7.33833">
        <ele>314.49</ele>
        <time>2016-04-04T08:23:30Z</time>
      </trkpt>
      <trkpt lat="48.84837" lon="7.33833">
        <ele>314.49</ele>
        <time>2016-04-04T08:23:49Z</time>
      </trkpt>
      <trkpt lat="48.84837" lon="7.33833">
        <ele>314.49</ele>
        <time>2016-04-04T08:23:54Z</time>
      </trkpt>
      <trkpt lat="48.8483" lon="7.33824">
        <ele>315.93</ele>
        <time>2016-04-04T08:24:08Z</time>
      </trkpt>
      <trkpt lat="48.84823" lon="7.3383">
        <ele>314.97</ele>
        <time>2016-04-04T08:24:25Z</time>
      </trkpt>
      <trkpt lat="48.84811" lon="7.33838">
        <ele>309.68</ele>
        <time>2016-04-04T08:24:44Z</time>
      </trkpt>
      <trkpt lat="48.84789" lon="7.33822">
        <ele>315.45</ele>
        <time>2016-04-04T08:24:59Z</time>
      </trkpt>
      <trkpt lat="48.84789" lon="7.33822">
        <ele>315.45</ele>
        <time>2016-04-04T08:25:16Z</time>
      </trkpt>
      <trkpt lat="48.84781" lon="7.33814">
        <ele>313.53</ele>
        <time>2016-04-04T08:25:31Z</time>
      </trkpt>
      <trkpt lat="48.84774" lon="7.33805">
        <ele>312.09</ele>
        <time>2016-04-04T08:25:48Z</time>
      </trkpt>
      <trkpt lat="48.84774" lon="7.33805">
        <ele>312.09</ele>
        <time>2016-04-04T08:26:19Z</time>
      </trkpt>
      <trkpt lat="48.84774" lon="7.33805">
        <ele>312.09</ele>
        <time>2016-04-04T08:26:54Z</time>
      </trkpt>
      <trkpt lat="48.84764" lon="7.33795">
        <ele>309.68</ele>
        <time>2016-04-04T08:27:16Z</time>
      </trkpt>
      <trkpt lat="48.84743" lon="7.33771">
        <ele>308.24</ele>
        <time>2016-04-04T08:27:27Z</time>
      </trkpt>
      <trkpt lat="48.8472" lon="7.33735">
        <ele>320.26</ele>
        <time>2016-04-04T08:27:44Z</time>
      </trkpt>
      <trkpt lat="48.8472" lon="7.33735">
        <ele>320.26</ele>
        <time>2016-04-04T08:28:01Z</time>
      </trkpt>
      <trkpt lat="48.84718" lon="7.33734">
        <ele>319.78</ele>
        <time>2016-04-04T08:28:38Z</time>
      </trkpt>
      <trkpt lat="48.84717" lon="7.33734">
        <ele>319.3</ele>
        <time>2016-04-04T08:29:12Z</time>
      </trkpt>
      <trkpt lat="48.84711" lon="7.33729">
        <ele>322.18</ele>
        <time>2016-04-04T08:29:38Z</time>
      </trkpt>
      <trkpt lat="48.84703" lon="7.33724">
        <ele>321.22</ele>
        <time>2016-04-04T08:29:57Z</time>
      </trkpt>
      <trkpt lat="48.8468" lon="7.33712">
        <ele>323.14</ele>
        <time>2016-04-04T08:30:17Z</time>
      </trkpt>
      <trkpt lat="48.8468" lon="7.33712">
        <ele>323.14</ele>
        <time>2016-04-04T08:30:36Z</time>
      </trkpt>
      <trkpt lat="48.84666" lon="7.33701">
        <ele>316.89</ele>
        <time>2016-04-04T08:30:55Z</time>
      </trkpt>
      <trkpt lat="48.84644" lon="7.33671">
        <ele>307.28</ele>
        <time>2016-04-04T08:31:14Z</time>
      </trkpt>
      <trkpt lat="48.8464" lon="7.33669">
        <ele>305.84</ele>
        <time>2016-04-04T08:31:32Z</time>
      </trkpt>
      <trkpt lat="48.8463" lon="7.33631">
        <ele>300.55</ele>
        <time>2016-04-04T08:31:50Z</time>
      </trkpt>
      <trkpt lat="48.84621" lon="7.33592">
        <ele>300.55</ele>
        <time>2016-04-04T08:32:08Z</time>
      </trkpt>
      <trkpt lat="48.84621" lon="7.33592">
        <ele>300.55</ele>
        <time>2016-04-04T08:32:36Z</time>
      </trkpt>
      <trkpt lat="48.84615" lon="7.33574">
        <ele>303.43</ele>
        <time>2016-04-04T08:32:55Z</time>
      </trkpt>
      <trkpt lat="48.8461" lon="7.33557">
        <ele>306.32</ele>
        <time>2016-04-04T08:33:13Z</time>
      </trkpt>
      <trkpt lat="48.84608" lon="7.33553">
        <ele>306.8</ele>
        <time>2016-04-04T08:33:34Z</time>
      </trkpt>
      <trkpt lat="48.84608" lon="7.33553">
        <ele>306.8</ele>
        <time>2016-04-04T08:34:03Z</time>
      </trkpt>
      <trkpt lat="48.84596" lon="7.33515">
        <ele>308.24</ele>
        <time>2016-04-04T08:34:19Z</time>
      </trkpt>
      <trkpt lat="48.84586" lon="7.33486">
        <ele>314.97</ele>
        <time>2016-04-04T08:34:32Z</time>
      </trkpt>
      <trkpt lat="48.84579" lon="7.33466">
        <ele>320.26</ele>
        <time>2016-04-04T08:34:49Z</time>
      </trkpt>
      <trkpt lat="48.84569" lon="7.3345">
        <ele>317.37</ele>
        <time>2016-04-04T08:35:04Z</time>
      </trkpt>
      <trkpt lat="48.84554" lon="7.33434">
        <ele>315.45</ele>
        <time>2016-04-04T08:35:21Z</time>
      </trkpt>
      <trkpt lat="48.84534" lon="7.33431">
        <ele>310.64</ele>
        <time>2016-04-04T08:35:40Z</time>
      </trkpt>
      <trkpt lat="48.84523" lon="7.33423">
        <ele>304.88</ele>
        <time>2016-04-04T08:35:52Z</time>
      </trkpt>
      <trkpt lat="48.84512" lon="7.3341">
        <ele>304.88</ele>
        <time>2016-04-04T08:36:10Z</time>
      </trkpt>
      <trkpt lat="48.845" lon="7.33383">
        <ele>308.24</ele>
        <time>2016-04-04T08:36:28Z</time>
      </trkpt>
      <trkpt lat="48.84495" lon="7.33366">
        <ele>311.6</ele>
        <time>2016-04-04T08:36:37Z</time>
      </trkpt>
      <trkpt lat="48.84483" lon="7.33356">
        <ele>310.64</ele>
        <time>2016-04-04T08:36:52Z</time>
      </trkpt>
      <trkpt lat="48.84481" lon="7.33355">
        <ele>310.64</ele>
        <time>2016-04-04T08:37:09Z</time>
      </trkpt>
      <trkpt lat="48.84475" lon="7.33356">
        <ele>308.72</ele>
        <time>2016-04-04T08:37:26Z</time>
      </trkpt>
      <trkpt lat="48.84473" lon="7.33357">
        <ele>308.24</ele>
        <time>2016-04-04T08:37:51Z</time>
      </trkpt>
      <trkpt lat="48.84458" lon="7.33352">
        <ele>307.76</ele>
        <time>2016-04-04T08:38:11Z</time>
      </trkpt>
      <trkpt lat="48.84435" lon="7.33332">
        <ele>310.16</ele>
        <time>2016-04-04T08:38:27Z</time>
      </trkpt>
      <trkpt lat="48.84426" lon="7.33308">
        <ele>309.2</ele>
        <time>2016-04-04T08:38:44Z</time>
      </trkpt>
      <trkpt lat="48.84418" lon="7.33305">
        <ele>309.2</ele>
        <time>2016-04-04T08:39:04Z</time>
      </trkpt>
      <trkpt lat="48.84413" lon="7.33305">
        <ele>308.24</ele>
        <time>2016-04-04T08:39:28Z</time>
      </trkpt>
      <trkpt lat="48.844" lon="7.33312">
        <ele>308.72</ele>
        <time>2016-04-04T08:39:45Z</time>
      </trkpt>
      <trkpt lat="48.84393" lon="7.33314">
        <ele>306.8</ele>
        <time>2016-04-04T08:40:03Z</time>
      </trkpt>
      <trkpt lat="48.8439" lon="7.33313">
        <ele>306.32</ele>
        <time>2016-04-04T08:40:25Z</time>
      </trkpt>
      <trkpt lat="48.84365" lon="7.33323">
        <ele>315.45</ele>
        <time>2016-04-04T08:40:39Z</time>
      </trkpt>
      <trkpt lat="48.84347" lon="7.33326">
        <ele>315.45</ele>
        <time>2016-04-04T08:40:54Z</time>
      </trkpt>
      <trkpt lat="48.84339" lon="7.33324">
        <ele>314.49</ele>
        <time>2016-04-04T08:41:02Z</time>
      </trkpt>
      <trkpt lat="48.84322" lon="7.33322">
        <ele>312.09</ele>
        <time>2016-04-04T08:41:17Z</time>
      </trkpt>
      <trkpt lat="48.84311" lon="7.33312">
        <ele>309.2</ele>
        <time>2016-04-04T08:41:32Z</time>
      </trkpt>
      <trkpt lat="48.84297" lon="7.33295">
        <ele>313.05</ele>
        <time>2016-04-04T08:41:47Z</time>
      </trkpt>
      <trkpt lat="48.8429" lon="7.33278">
        <ele>317.37</ele>
        <time>2016-04-04T08:42:04Z</time>
      </trkpt>
      <trkpt lat="48.84279" lon="7.33271">
        <ele>320.26</ele>
        <time>2016-04-04T08:42:21Z</time>
      </trkpt>
      <trkpt lat="48.84271" lon="7.3327">
        <ele>321.7</ele>
        <time>2016-04-04T08:42:37Z</time>
      </trkpt>
      <trkpt lat="48.84267" lon="7.33275">
        <ele>321.7</ele>
        <time>2016-04-04T08:42:50Z</time>
      </trkpt>
      <trkpt lat="48.84267" lon="7.33275">
        <ele>321.7</ele>
        <time>2016-04-04T08:43:07Z</time>
      </trkpt>
      <trkpt lat="48.84267" lon="7.33276">
        <ele>321.7</ele>
        <time>2016-04-04T08:43:26Z</time>
      </trkpt>
      <trkpt lat="48.84266" lon="7.33284">
        <ele>318.81</ele>
        <time>2016-04-04T08:43:58Z</time>
      </trkpt>
      <trkpt lat="48.84267" lon="7.33304">
        <ele>313.53</ele>
        <time>2016-04-04T08:44:18Z</time>
      </trkpt>
      <trkpt lat="48.84266" lon="7.33317">
        <ele>311.6</ele>
        <time>2016-04-04T08:44:45Z</time>
      </trkpt>
      <trkpt lat="48.84266" lon="7.33321">
        <ele>311.12</ele>
        <time>2016-04-04T08:45:13Z</time>
      </trkpt>
      <trkpt lat="48.84269" lon="7.33351">
        <ele>308.72</ele>
        <time>2016-04-04T08:45:36Z</time>
      </trkpt>
      <trkpt lat="48.8427" lon="7.33398">
        <ele>317.85</ele>
        <time>2016-04-04T08:45:55Z</time>
      </trkpt>
      <trkpt lat="48.84274" lon="7.33416">
        <ele>318.33</ele>
        <time>2016-04-04T08:46:06Z</time>
      </trkpt>
      <trkpt lat="48.84283" lon="7.33434">
        <ele>319.3</ele>
        <time>2016-04-04T08:46:20Z</time>
      </trkpt>
      <trkpt lat="48.84293" lon="7.33459">
        <ele>322.18</ele>
        <time>2016-04-04T08:46:39Z</time>
      </trkpt>
      <trkpt lat="48.84313" lon="7.33502">
        <ele>321.22</ele>
        <time>2016-04-04T08:47:05Z</time>
      </trkpt>
      <trkpt lat="48.84321" lon="7.33515">
        <ele>317.37</ele>
        <time>2016-04-04T08:47:24Z</time>
      </trkpt>
      <trkpt lat="48.84332" lon="7.33539">
        <ele>319.78</ele>
        <time>2016-04-04T08:47:41Z</time>
      </trkpt>
      <trkpt lat="48.84333" lon="7.33542">
        <ele>319.78</ele>
        <time>2016-04-04T08:47:56Z</time>
      </trkpt>
      <trkpt lat="48.84337" lon="7.33546">
        <ele>318.33</ele>
        <time>2016-04-04T08:48:01Z</time>
      </trkpt>
      <trkpt lat="48.84347" lon="7.33573">
        <ele>311.6</ele>
        <time>2016-04-04T08:48:18Z</time>
      </trkpt>
      <trkpt lat="48.8435" lon="7.3359">
        <ele>309.2</ele>
        <time>2016-04-04T08:48:32Z</time>
      </trkpt>
      <trkpt lat="48.84354" lon="7.336">
        <ele>302.47</ele>
        <time>2016-04-04T08:48:52Z</time>
      </trkpt>
      <trkpt lat="48.84354" lon="7.33601">
        <ele>301.51</ele>
        <time>2016-04-04T08:49:14Z</time>
      </trkpt>
      <trkpt lat="48.84362" lon="7.33637">
        <ele>295.26</ele>
        <time>2016-04-04T08:49:33Z</time>
      </trkpt>
      <trkpt lat="48.84363" lon="7.33671">
        <ele>299.59</ele>
        <time>2016-04-04T08:49:47Z</time>
      </trkpt>
      <trkpt lat="48.84364" lon="7.33675">
        <ele>300.55</ele>
        <time>2016-04-04T08:49:50Z</time>
      </trkpt>
      <trkpt lat="48.84364" lon="7.33698">
        <ele>301.51</ele>
        <time>2016-04-04T08:49:59Z</time>
      </trkpt>
      <trkpt lat="48.84365" lon="7.33713">
        <ele>303.43</ele>
        <time>2016-04-04T08:50:15Z</time>
      </trkpt>
      <trkpt lat="48.84367" lon="7.33729">
        <ele>304.88</ele>
        <time>2016-04-04T08:50:32Z</time>
      </trkpt>
      <trkpt lat="48.84363" lon="7.33751">
        <ele>306.8</ele>
        <time>2016-04-04T08:50:47Z</time>
      </trkpt>
      <trkpt lat="48.84352" lon="7.33797">
        <ele>316.41</ele>
        <time>2016-04-04T08:51:02Z</time>
      </trkpt>
      <trkpt lat="48.84351" lon="7.33799">
        <ele>316.41</ele>
        <time>2016-04-04T08:51:18Z</time>
      </trkpt>
      <trkpt lat="48.84351" lon="7.33799">
        <ele>316.41</ele>
        <time>2016-04-04T08:51:31Z</time>
      </trkpt>
      <trkpt lat="48.8435" lon="7.33801">
        <ele>316.89</ele>
        <time>2016-04-04T08:51:50Z</time>
      </trkpt>
      <trkpt lat="48.8435" lon="7.33801">
        <ele>316.89</ele>
        <time>2016-04-04T08:52:09Z</time>
      </trkpt>
      <trkpt lat="48.8435" lon="7.33802">
        <ele>316.89</ele>
        <time>2016-04-04T08:52:33Z</time>
      </trkpt>
      <trkpt lat="48.8435" lon="7.33802">
        <ele>316.89</ele>
        <time>2016-04-04T08:52:47Z</time>
      </trkpt>
      <trkpt lat="48.84343" lon="7.33815">
        <ele>320.26</ele>
        <time>2016-04-04T08:53:04Z</time>
      </trkpt>
      <trkpt lat="48.84341" lon="7.3382">
        <ele>322.18</ele>
        <time>2016-04-04T08:53:22Z</time>
      </trkpt>
      <trkpt lat="48.84341" lon="7.3382">
        <ele>322.18</ele>
        <time>2016-04-04T08:53:41Z</time>
      </trkpt>
      <trkpt lat="48.84337" lon="7.33821">
        <ele>320.74</ele>
        <time>2016-04-04T08:54:05Z</time>
      </trkpt>
      <trkpt lat="48.84301" lon="7.33854">
        <ele>320.74</ele>
        <time>2016-04-04T08:54:24Z</time>
      </trkpt>
      <trkpt lat="48.84294" lon="7.33861">
        <ele>320.74</ele>
        <time>2016-04-04T08:54:42Z</time>
      </trkpt>
      <trkpt lat="48.84286" lon="7.3387">
        <ele>321.22</ele>
        <time>2016-04-04T08:55:03Z</time>
      </trkpt>
      <trkpt lat="48.84268" lon="7.33889">
        <ele>318.33</ele>
        <time>2016-04-04T08:55:24Z</time>
      </trkpt>
      <trkpt lat="48.84262" lon="7.33896">
        <ele>316.89</ele>
        <time>2016-04-04T08:55:27Z</time>
      </trkpt>
      <trkpt lat="48.84218" lon="7.33931">
        <ele>311.12</ele>
        <time>2016-04-04T08:55:44Z</time>
      </trkpt>
      <trkpt lat="48.84198" lon="7.3395">
        <ele>306.32</ele>
        <time>2016-04-04T08:55:59Z</time>
      </trkpt>
      <trkpt lat="48.84179" lon="7.33971">
        <ele>310.16</ele>
        <time>2016-04-04T08:56:13Z</time>
      </trkpt>
      <trkpt lat="48.84152" lon="7.3399">
        <ele>316.41</ele>
        <time>2016-04-04T08:56:31Z</time>
      </trkpt>
      <trkpt lat="48.84115" lon="7.34041">
        <ele>320.74</ele>
        <time>2016-04-04T08:56:53Z</time>
      </trkpt>
      <trkpt lat="48.84105" lon="7.34055">
        <ele>319.78</ele>
        <time>2016-04-04T08:57:10Z</time>
      </trkpt>
      <trkpt lat="48.84105" lon="7.34055">
        <ele>319.78</ele>
        <time>2016-04-04T08:57:34Z</time>
      </trkpt>
      <trkpt lat="48.84097" lon="7.34064">
        <ele>318.33</ele>
        <time>2016-04-04T08:57:51Z</time>
      </trkpt>
      <trkpt lat="48.8409" lon="7.34068">
        <ele>315.93</ele>
        <time>2016-04-04T08:58:09Z</time>
      </trkpt>
      <trkpt lat="48.84085" lon="7.34094">
        <ele>312.57</ele>
        <time>2016-04-04T08:58:26Z</time>
      </trkpt>
      <trkpt lat="48.84085" lon="7.34092">
        <ele>311.12</ele>
        <time>2016-04-04T08:58:54Z</time>
      </trkpt>
      <trkpt lat="48.84082" lon="7.34099">
        <ele>310.64</ele>
        <time>2016-04-04T08:59:11Z</time>
      </trkpt>
      <trkpt lat="48.84081" lon="7.34102">
        <ele>310.16</ele>
        <time>2016-04-04T08:59:38Z</time>
      </trkpt>
      <trkpt lat="48.84078" lon="7.34134">
        <ele>312.09</ele>
        <time>2016-04-04T08:59:54Z</time>
      </trkpt>
      <trkpt lat="48.84074" lon="7.34141">
        <ele>313.05</ele>
        <time>2016-04-04T09:00:13Z</time>
      </trkpt>
      <trkpt lat="48.84082" lon="7.34143">
        <ele>312.57</ele>
        <time>2016-04-04T09:00:39Z</time>
      </trkpt>
      <trkpt lat="48.84085" lon="7.34139">
        <ele>312.09</ele>
        <time>2016-04-04T09:00:57Z</time>
      </trkpt>
      <trkpt lat="48.84086" lon="7.34143">
        <ele>311.6</ele>
        <time>2016-04-04T09:01:16Z</time>
      </trkpt>
      <trkpt lat="48.84096" lon="7.34167">
        <ele>318.33</ele>
        <time>2016-04-04T09:01:36Z</time>
      </trkpt>
      <trkpt lat="48.841" lon="7.34178">
        <ele>314.01</ele>
        <time>2016-04-04T09:01:55Z</time>
      </trkpt>
      <trkpt lat="48.8409" lon="7.34193">
        <ele>313.53</ele>
        <time>2016-04-04T09:02:17Z</time>
      </trkpt>
      <trkpt lat="48.84092" lon="7.34197">
        <ele>313.05</ele>
        <time>2016-04-04T09:02:38Z</time>
      </trkpt>
      <trkpt lat="48.84095" lon="7.34207">
        <ele>317.37</ele>
        <time>2016-04-04T09:03:07Z</time>
      </trkpt>
      <trkpt lat="48.84095" lon="7.34207">
        <ele>317.37</ele>
        <time>2016-04-04T09:03:23Z</time>
      </trkpt>
      <trkpt lat="48.84095" lon="7.34207">
        <ele>317.37</ele>
        <time>2016-04-04T09:03:49Z</time>
      </trkpt>
      <trkpt lat="48.84092" lon="7.34204">
        <ele>323.14</ele>
        <time>2016-04-04T09:04:15Z</time>
      </trkpt>
      <trkpt lat="48.84092" lon="7.34204">
        <ele>323.14</ele>
        <time>2016-04-04T09:04:41Z</time>
      </trkpt>
      <trkpt lat="48.84092" lon="7.34203">
        <ele>323.14</ele>
        <time>2016-04-04T09:04:44Z</time>
      </trkpt>
      <trkpt lat="48.84099" lon="7.3419">
        <ele>317.85</ele>
        <time>2016-04-04T09:05:01Z</time>
      </trkpt>
      <trkpt lat="48.84113" lon="7.34179">
        <ele>314.01</ele>
        <time>2016-04-04T09:05:18Z</time>
      </trkpt>
      <trkpt lat="48.84114" lon="7.3418">
        <ele>314.01</ele>
        <time>2016-04-04T09:05:19Z</time>
      </trkpt>
      <trkpt lat="48.84132" lon="7.34177">
        <ele>317.37</ele>
        <time>2016-04-04T09:05:33Z</time>
      </trkpt>
      <trkpt lat="48.84147" lon="7.34175">
        <ele>316.89</ele>
        <time>2016-04-04T09:05:49Z</time>
      </trkpt>
      <trkpt lat="48.84161" lon="7.3417">
        <ele>317.85</ele>
        <time>2016-04-04T09:06:05Z</time>
      </trkpt>
      <trkpt lat="48.84174" lon="7.34171">
        <ele>317.85</ele>
        <time>2016-04-04T09:06:21Z</time>
      </trkpt>
      <trkpt lat="48.84186" lon="7.34174">
        <ele>317.37</ele>
        <time>2016-04-04T09:06:29Z</time>
      </trkpt>
      <trkpt lat="48.84208" lon="7.34182">
        <ele>316.41</ele>
        <time>2016-04-04T09:06:46Z</time>
      </trkpt>
      <trkpt lat="48.84225" lon="7.34185">
        <ele>318.33</ele>
        <time>2016-04-04T09:07:00Z</time>
      </trkpt>
      <trkpt lat="48.84242" lon="7.34189">
        <ele>320.74</ele>
        <time>2016-04-04T09:07:14Z</time>
      </trkpt>
      <trkpt lat="48.8426" lon="7.34194">
        <ele>324.1</ele>
        <time>2016-04-04T09:07:24Z</time>
      </trkpt>
      <trkpt lat="48.84262" lon="7.34196">
        <ele>324.58</ele>
        <time>2016-04-04T09:07:27Z</time>
      </trkpt>
      <trkpt lat="48.84274" lon="7.34211">
        <ele>327.95</ele>
        <time>2016-04-04T09:07:38Z</time>
      </trkpt>
      <trkpt lat="48.84287" lon="7.34223">
        <ele>326.99</ele>
        <time>2016-04-04T09:07:54Z</time>
      </trkpt>
      <trkpt lat="48.84299" lon="7.34236">
        <ele>326.5</ele>
        <time>2016-04-04T09:08:09Z</time>
      </trkpt>
      <trkpt lat="48.84313" lon="7.3425">
        <ele>326.5</ele>
        <time>2016-04-04T09:08:24Z</time>
      </trkpt>
      <trkpt lat="48.84322" lon="7.34265">
        <ele>326.5</ele>
        <time>2016-04-04T09:08:38Z</time>
      </trkpt>
      <trkpt lat="48.84326" lon="7.34272">
        <ele>326.5</ele>
        <time>2016-04-04T09:08:43Z</time>
      </trkpt>
      <trkpt lat="48.84333" lon="7.34291">
        <ele>325.54</ele>
        <time>2016-04-04T09:08:57Z</time>
      </trkpt>
      <trkpt lat="48.84342" lon="7.34306">
        <ele>323.62</ele>
        <time>2016-04-04T09:09:10Z</time>
      </trkpt>
      <trkpt lat="48.84347" lon="7.34315">
        <ele>323.62</ele>
        <time>2016-04-04T09:09:16Z</time>
      </trkpt>
      <trkpt lat="48.84353" lon="7.34327">
        <ele>325.06</ele>
        <time>2016-04-04T09:09:23Z</time>
      </trkpt>
      <trkpt lat="48.84356" lon="7.34333">
        <ele>324.58</ele>
        <time>2016-04-04T09:09:42Z</time>
      </trkpt>
      <trkpt lat="48.84359" lon="7.34351">
        <ele>324.58</ele>
        <time>2016-04-04T09:09:55Z</time>
      </trkpt>
      <trkpt lat="48.84361" lon="7.34355">
        <ele>325.54</ele>
        <time>2016-04-04T09:10:11Z</time>
      </trkpt>
      <trkpt lat="48.84367" lon="7.34365">
        <ele>326.02</ele>
        <time>2016-04-04T09:10:26Z</time>
      </trkpt>
      <trkpt lat="48.8438" lon="7.34392">
        <ele>330.83</ele>
        <time>2016-04-04T09:10:42Z</time>
      </trkpt>
      <trkpt lat="48.84381" lon="7.34396">
        <ele>331.79</ele>
        <time>2016-04-04T09:10:44Z</time>
      </trkpt>
      <trkpt lat="48.84393" lon="7.34423">
        <ele>335.16</ele>
        <time>2016-04-04T09:10:59Z</time>
      </trkpt>
      <trkpt lat="48.84394" lon="7.34425">
        <ele>335.16</ele>
        <time>2016-04-04T09:11:00Z</time>
      </trkpt>
      <trkpt lat="48.84396" lon="7.34427">
        <ele>334.68</ele>
        <time>2016-04-04T09:11:02Z</time>
      </trkpt>
      <trkpt lat="48.8441" lon="7.34443">
        <ele>333.23</ele>
        <time>2016-04-04T09:11:18Z</time>
      </trkpt>
      <trkpt lat="48.84416" lon="7.34444">
        <ele>333.71</ele>
        <time>2016-04-04T09:11:23Z</time>
      </trkpt>
      <trkpt lat="48.84432" lon="7.34445">
        <ele>335.64</ele>
        <time>2016-04-04T09:11:38Z</time>
      </trkpt>
      <trkpt lat="48.84442" lon="7.34446">
        <ele>334.68</ele>
        <time>2016-04-04T09:11:52Z</time>
      </trkpt>
      <trkpt lat="48.84448" lon="7.34446">
        <ele>334.2</ele>
        <time>2016-04-04T09:11:58Z</time>
      </trkpt>
      <trkpt lat="48.84454" lon="7.34452">
        <ele>334.68</ele>
        <time>2016-04-04T09:12:13Z</time>
      </trkpt>
      <trkpt lat="48.84456" lon="7.34471">
        <ele>331.31</ele>
        <time>2016-04-04T09:12:27Z</time>
      </trkpt>
      <trkpt lat="48.84456" lon="7.34472">
        <ele>330.83</ele>
        <time>2016-04-04T09:12:47Z</time>
      </trkpt>
      <trkpt lat="48.84456" lon="7.34472">
        <ele>330.83</ele>
        <time>2016-04-04T09:13:15Z</time>
      </trkpt>
      <trkpt lat="48.84457" lon="7.34476">
        <ele>328.91</ele>
        <time>2016-04-04T09:13:50Z</time>
      </trkpt>
      <trkpt lat="48.84455" lon="7.3447">
        <ele>327.47</ele>
        <time>2016-04-04T09:14:03Z</time>
      </trkpt>
      <trkpt lat="48.84456" lon="7.34451">
        <ele>326.02</ele>
        <time>2016-04-04T09:14:18Z</time>
      </trkpt>
      <trkpt lat="48.84459" lon="7.34439">
        <ele>323.62</ele>
        <time>2016-04-04T09:14:36Z</time>
      </trkpt>
      <trkpt lat="48.84464" lon="7.34411">
        <ele>327.95</ele>
        <time>2016-04-04T09:14:48Z</time>
      </trkpt>
      <trkpt lat="48.84466" lon="7.34388">
        <ele>330.83</ele>
        <time>2016-04-04T09:15:02Z</time>
      </trkpt>
      <trkpt lat="48.84467" lon="7.34379">
        <ele>330.83</ele>
        <time>2016-04-04T09:15:07Z</time>
      </trkpt>
      <trkpt lat="48.84468" lon="7.34354">
        <ele>330.35</ele>
        <time>2016-04-04T09:15:20Z</time>
      </trkpt>
      <trkpt lat="48.84463" lon="7.34327">
        <ele>329.39</ele>
        <time>2016-04-04T09:15:36Z</time>
      </trkpt>
      <trkpt lat="48.84458" lon="7.34304">
        <ele>326.02</ele>
        <time>2016-04-04T09:15:51Z</time>
      </trkpt>
      <trkpt lat="48.84455" lon="7.34273">
        <ele>326.5</ele>
        <time>2016-04-04T09:16:08Z</time>
      </trkpt>
      <trkpt lat="48.84454" lon="7.34263">
        <ele>326.5</ele>
        <time>2016-04-04T09:16:12Z</time>
      </trkpt>
      <trkpt lat="48.84446" lon="7.34235">
        <ele>326.5</ele>
        <time>2016-04-04T09:16:29Z</time>
      </trkpt>
      <trkpt lat="48.84441" lon="7.34207">
        <ele>329.87</ele>
        <time>2016-04-04T09:16:45Z</time>
      </trkpt>
      <trkpt lat="48.84441" lon="7.34205">
        <ele>329.87</ele>
        <time>2016-04-04T09:16:46Z</time>
      </trkpt>
      <trkpt lat="48.8444" lon="7.34198">
        <ele>330.83</ele>
        <time>2016-04-04T09:16:50Z</time>
      </trkpt>
      <trkpt lat="48.84437" lon="7.34171">
        <ele>333.71</ele>
        <time>2016-04-04T09:17:02Z</time>
      </trkpt>
      <trkpt lat="48.84439" lon="7.34162">
        <ele>333.23</ele>
        <time>2016-04-04T09:17:06Z</time>
      </trkpt>
      <trkpt lat="48.84441" lon="7.34146">
        <ele>332.27</ele>
        <time>2016-04-04T09:17:15Z</time>
      </trkpt>
      <trkpt lat="48.84447" lon="7.34115">
        <ele>329.39</ele>
        <time>2016-04-04T09:17:33Z</time>
      </trkpt>
      <trkpt lat="48.84451" lon="7.34087">
        <ele>328.91</ele>
        <time>2016-04-04T09:17:47Z</time>
      </trkpt>
      <trkpt lat="48.84454" lon="7.34068">
        <ele>327.95</ele>
        <time>2016-04-04T09:17:58Z</time>
      </trkpt>
      <trkpt lat="48.84452" lon="7.34049">
        <ele>327.95</ele>
        <time>2016-04-04T09:18:06Z</time>
      </trkpt>
      <trkpt lat="48.84458" lon="7.34015">
        <ele>326.5</ele>
        <time>2016-04-04T09:18:21Z</time>
      </trkpt>
      <trkpt lat="48.84458" lon="7.34001">
        <ele>325.54</ele>
        <time>2016-04-04T09:18:28Z</time>
      </trkpt>
      <trkpt lat="48.84461" lon="7.3397">
        <ele>323.62</ele>
        <time>2016-04-04T09:18:46Z</time>
      </trkpt>
      <trkpt lat="48.84465" lon="7.33937">
        <ele>322.66</ele>
        <time>2016-04-04T09:19:02Z</time>
      </trkpt>
      <trkpt lat="48.84472" lon="7.3391">
        <ele>316.89</ele>
        <time>2016-04-04T09:19:20Z</time>
      </trkpt>
      <trkpt lat="48.84478" lon="7.33898">
        <ele>315.93</ele>
        <time>2016-04-04T09:19:35Z</time>
      </trkpt>
      <trkpt lat="48.84491" lon="7.33886">
        <ele>309.2</ele>
        <time>2016-04-04T09:19:52Z</time>
      </trkpt>
      <trkpt lat="48.84508" lon="7.33878">
        <ele>312.09</ele>
        <time>2016-04-04T09:20:01Z</time>
      </trkpt>
      <trkpt lat="48.84536" lon="7.3388">
        <ele>314.97</ele>
        <time>2016-04-04T09:20:18Z</time>
      </trkpt>
      <trkpt lat="48.84554" lon="7.33884">
        <ele>315.93</ele>
        <time>2016-04-04T09:20:32Z</time>
      </trkpt>
      <trkpt lat="48.84578" lon="7.33889">
        <ele>316.89</ele>
        <time>2016-04-04T09:20:48Z</time>
      </trkpt>
      <trkpt lat="48.846" lon="7.33889">
        <ele>317.85</ele>
        <time>2016-04-04T09:21:03Z</time>
      </trkpt>
      <trkpt lat="48.84618" lon="7.33897">
        <ele>320.26</ele>
        <time>2016-04-04T09:21:18Z</time>
      </trkpt>
      <trkpt lat="48.84625" lon="7.33902">
        <ele>322.66</ele>
        <time>2016-04-04T09:21:24Z</time>
      </trkpt>
      <trkpt lat="48.84636" lon="7.33912">
        <ele>321.22</ele>
        <time>2016-04-04T09:21:36Z</time>
      </trkpt>
      <trkpt lat="48.84659" lon="7.33926">
        <ele>323.14</ele>
        <time>2016-04-04T09:21:51Z</time>
      </trkpt>
      <trkpt lat="48.84669" lon="7.33934">
        <ele>325.06</ele>
        <time>2016-04-04T09:21:59Z</time>
      </trkpt>
      <trkpt lat="48.84677" lon="7.33939">
        <ele>325.06</ele>
        <time>2016-04-04T09:22:08Z</time>
      </trkpt>
      <trkpt lat="48.84696" lon="7.33952">
        <ele>325.06</ele>
        <time>2016-04-04T09:22:24Z</time>
      </trkpt>
      <trkpt lat="48.84714" lon="7.3397">
        <ele>325.54</ele>
        <time>2016-04-04T09:22:38Z</time>
      </trkpt>
      <trkpt lat="48.84719" lon="7.33975">
        <ele>326.02</ele>
        <time>2016-04-04T09:22:43Z</time>
      </trkpt>
      <trkpt lat="48.84729" lon="7.33989">
        <ele>324.1</ele>
        <time>2016-04-04T09:22:56Z</time>
      </trkpt>
      <trkpt lat="48.84741" lon="7.34003">
        <ele>320.74</ele>
        <time>2016-04-04T09:23:09Z</time>
      </trkpt>
      <trkpt lat="48.84753" lon="7.3402">
        <ele>324.58</ele>
        <time>2016-04-04T09:23:22Z</time>
      </trkpt>
      <trkpt lat="48.84757" lon="7.34024">
        <ele>327.47</ele>
        <time>2016-04-04T09:23:26Z</time>
      </trkpt>
      <trkpt lat="48.84767" lon="7.3403">
        <ele>331.31</ele>
        <time>2016-04-04T09:23:37Z</time>
      </trkpt>
      <trkpt lat="48.84775" lon="7.34038">
        <ele>332.27</ele>
        <time>2016-04-04T09:23:45Z</time>
      </trkpt>
      <trkpt lat="48.84793" lon="7.34072">
        <ele>334.68</ele>
        <time>2016-04-04T09:24:06Z</time>
      </trkpt>
      <trkpt lat="48.84794" lon="7.34083">
        <ele>334.68</ele>
        <time>2016-04-04T09:24:25Z</time>
      </trkpt>
      <trkpt lat="48.84804" lon="7.34095">
        <ele>334.68</ele>
        <time>2016-04-04T09:24:51Z</time>
      </trkpt>
      <trkpt lat="48.84808" lon="7.34095">
        <ele>334.2</ele>
        <time>2016-04-04T09:24:55Z</time>
      </trkpt>
      <trkpt lat="48.84813" lon="7.34098">
        <ele>334.68</ele>
        <time>2016-04-04T09:24:59Z</time>
      </trkpt>
      <trkpt lat="48.84829" lon="7.34108">
        <ele>337.08</ele>
        <time>2016-04-04T09:25:14Z</time>
      </trkpt>
      <trkpt lat="48.84845" lon="7.34119">
        <ele>338.52</ele>
        <time>2016-04-04T09:25:27Z</time>
      </trkpt>
      <trkpt lat="48.84865" lon="7.34125">
        <ele>339</ele>
        <time>2016-04-04T09:25:43Z</time>
      </trkpt>
      <trkpt lat="48.84888" lon="7.34129">
        <ele>341.89</ele>
        <time>2016-04-04T09:25:57Z</time>
      </trkpt>
      <trkpt lat="48.84905" lon="7.34129">
        <ele>340.92</ele>
        <time>2016-04-04T09:26:10Z</time>
      </trkpt>
      <trkpt lat="48.84906" lon="7.34129">
        <ele>340.92</ele>
        <time>2016-04-04T09:26:11Z</time>
      </trkpt>
      <trkpt lat="48.84911" lon="7.34128">
        <ele>341.89</ele>
        <time>2016-04-04T09:26:16Z</time>
      </trkpt>
      <trkpt lat="48.84918" lon="7.34129">
        <ele>341.41</ele>
        <time>2016-04-04T09:26:20Z</time>
      </trkpt>
      <trkpt lat="48.84935" lon="7.3411">
        <ele>337.08</ele>
        <time>2016-04-04T09:26:36Z</time>
      </trkpt>
      <trkpt lat="48.8495" lon="7.34085">
        <ele>332.75</ele>
        <time>2016-04-04T09:26:54Z</time>
      </trkpt>
      <trkpt lat="48.84968" lon="7.34059">
        <ele>330.83</ele>
        <time>2016-04-04T09:27:13Z</time>
      </trkpt>
      <trkpt lat="48.8497" lon="7.34023">
        <ele>324.1</ele>
        <time>2016-04-04T09:27:37Z</time>
      </trkpt>
      <trkpt lat="48.8497" lon="7.3402">
        <ele>324.1</ele>
        <time>2016-04-04T09:27:39Z</time>
      </trkpt>
      <trkpt lat="48.84969" lon="7.33981">
        <ele>327.95</ele>
        <time>2016-04-04T09:27:55Z</time>
      </trkpt>
      <trkpt lat="48.84974" lon="7.33957">
        <ele>325.54</ele>
        <time>2016-04-04T09:28:10Z</time>
      </trkpt>
      <trkpt lat="48.84976" lon="7.33952">
        <ele>325.06</ele>
        <time>2016-04-04T09:28:24Z</time>
      </trkpt>
      <trkpt lat="48.84978" lon="7.33958">
        <ele>322.18</ele>
        <time>2016-04-04T09:28:31Z</time>
      </trkpt>
      <trkpt lat="48.84987" lon="7.33984">
        <ele>318.81</ele>
        <time>2016-04-04T09:28:48Z</time>
      </trkpt>
      <trkpt lat="48.8499" lon="7.33998">
        <ele>316.41</ele>
        <time>2016-04-04T09:29:03Z</time>
      </trkpt>
      <trkpt lat="48.84996" lon="7.34026">
        <ele>314.97</ele>
        <time>2016-04-04T09:29:20Z</time>
      </trkpt>
      <trkpt lat="48.85003" lon="7.34036">
        <ele>314.01</ele>
        <time>2016-04-04T09:29:36Z</time>
      </trkpt>
      <trkpt lat="48.85018" lon="7.34072">
        <ele>311.6</ele>
        <time>2016-04-04T09:30:00Z</time>
      </trkpt>
      <trkpt lat="48.8502" lon="7.3407">
        <ele>310.16</ele>
        <time>2016-04-04T09:30:17Z</time>
      </trkpt>
      <trkpt lat="48.85024" lon="7.34069">
        <ele>308.72</ele>
        <time>2016-04-04T09:30:34Z</time>
      </trkpt>
      <trkpt lat="48.85024" lon="7.34069">
        <ele>308.72</ele>
        <time>2016-04-04T09:30:51Z</time>
      </trkpt>
      <trkpt lat="48.85027" lon="7.34066">
        <ele>311.12</ele>
        <time>2016-04-04T09:31:11Z</time>
      </trkpt>
      <trkpt lat="48.85032" lon="7.34096">
        <ele>310.64</ele>
        <time>2016-04-04T09:31:32Z</time>
      </trkpt>
      <trkpt lat="48.85036" lon="7.34122">
        <ele>311.6</ele>
        <time>2016-04-04T09:31:47Z</time>
      </trkpt>
      <trkpt lat="48.85042" lon="7.34149">
        <ele>307.76</ele>
        <time>2016-04-04T09:32:05Z</time>
      </trkpt>
      <trkpt lat="48.85051" lon="7.34163">
        <ele>304.88</ele>
        <time>2016-04-04T09:32:15Z</time>
      </trkpt>
      <trkpt lat="48.85063" lon="7.3418">
        <ele>307.28</ele>
        <time>2016-04-04T09:32:33Z</time>
      </trkpt>
    </trkseg>
  </trk>
</gpx>